Portada
METAR-TAF:

METAR-TAF

Aeropuertos :

Aeropuerto de Helsinki-Vantaa

Helsinki, Finlandia

latitud: 60-19N, longitud: 024-58E, altitud: 51 m

Observación

El informe se hizo hace 17 minutos, a las 12:20 UTC
Viento 6 kt del noroeste
Temperatura -1°C
Humedad 86%
Presión 1032 hPa
Visibilidad 10 km o más
Escasas nubes a una altura de 600 ft
Cielo nuboso a una altura de 20000 ft

METAR: EFHK 211220Z 32006KT 9999 FEW006 BKN200 M01/M03 Q1032 TEMPO BKN006

Hora: 14:37 (12:37 UTC)

Pronóstico

El informe se hizo hace 1 hora y 8 minutos, a las 11:29 UTC
Pronóstico válido del 21 a las 12 UTC al 22 a las 12 UTC
Viento 7 kt del noroeste
Visibilidad 10 km o más
Nubes dispersas a una altura de 600 ft
Temporalmente
del 21 a las 12 UTC al 21 a las 15 UTC
Cielo nuboso a una altura de 600 ft

TAF: EFHK 211129Z 2112/2212 31007KT 9999 SCT006 TEMPO 2112/2115 BKN006

Observaciones y pronósticos meteorológicos de más de 4000 aeropuertos (mensajes METAR y TAF).

Los puntos amarillos y rojos representan las estaciones disponibles.

Ponga el ratón en el punto deseado para ver el nombre de la estación.

Haga clic para ver las observaciones y los pronósticos meteorológicos.

Para cambiar el mapa : haga clic en los botones verdes con una cruz de color negro para hacer un zoom, en el botón verde con un guión para alejar o en las flechas verdes para mapas adyacentes.


METAR-TAF: